createdAt,value
2023-09-08T00:00:54.618Z,100.00
2023-09-08T00:03:56.376Z,100.00
2023-09-08T00:06:58.157Z,100.00
2023-09-08T00:09:59.920Z,100.00
2023-09-08T00:13:01.527Z,100.00
2023-09-08T00:16:03.249Z,100.00
2023-09-08T00:19:04.984Z,100.00
2023-09-08T00:22:09.620Z,100.00
2023-09-08T00:25:11.346Z,100.00
2023-09-08T00:28:13.004Z,100.00
2023-09-08T00:31:14.635Z,100.00
2023-09-08T00:34:16.326Z,100.00
2023-09-08T00:37:17.983Z,100.00
2023-09-08T00:40:19.652Z,100.00
2023-09-08T00:43:21.349Z,100.00
2023-09-08T00:46:23.362Z,100.00
2023-09-08T00:49:25.411Z,100.00
2023-09-08T00:52:32.285Z,100.00
2023-09-08T00:55:34.426Z,100.00
2023-09-08T00:58:36.441Z,100.00
2023-09-08T01:01:38.346Z,100.00
2023-09-08T01:04:42.251Z,100.00
2023-09-08T01:07:45.498Z,100.00
2023-09-08T01:10:47.414Z,100.00
2023-09-08T01:13:49.131Z,100.00
2023-09-08T01:16:50.739Z,100.00
2023-09-08T01:20:01.080Z,100.00
2023-09-08T01:23:37.761Z,100.00
2023-09-08T01:26:43.208Z,100.00
2023-09-08T01:29:46.839Z,100.00
2023-09-08T01:32:50.352Z,100.00
2023-09-08T01:35:52.811Z,100.00
2023-09-08T01:38:54.465Z,100.00
2023-09-08T01:41:56.137Z,100.00
2023-09-08T01:44:57.758Z,100.00
2023-09-08T01:47:59.600Z,100.00
2023-09-08T01:51:01.282Z,100.00
2023-09-08T01:54:03.098Z,100.00
2023-09-08T01:57:04.855Z,100.00
2023-09-08T02:00:07.111Z,100.00
2023-09-08T02:03:08.720Z,100.00
2023-09-08T02:06:10.324Z,100.00
2023-09-08T02:09:14.971Z,100.00
2023-09-08T02:12:16.636Z,100.00
2023-09-08T02:15:18.803Z,100.00
2023-09-08T02:18:20.694Z,100.00
2023-09-08T02:21:22.783Z,100.00
2023-09-08T02:24:24.453Z,100.00
2023-09-08T02:27:26.140Z,100.00
2023-09-08T02:30:27.828Z,100.00
2023-09-08T02:33:29.937Z,100.00
2023-09-08T02:36:31.731Z,100.00
2023-09-08T02:39:33.671Z,100.00
2023-09-08T02:42:35.468Z,100.00
2023-09-08T02:45:37.199Z,100.00
2023-09-08T02:48:39.481Z,100.00
2023-09-08T02:51:41.120Z,100.00
2023-09-08T02:54:42.992Z,100.00
2023-09-08T02:57:44.668Z,100.00
2023-09-08T03:00:46.587Z,100.00
2023-09-08T03:03:49.387Z,100.00
2023-09-08T03:06:51.235Z,100.00
2023-09-08T03:09:52.855Z,100.00
2023-09-08T03:12:54.444Z,100.00
2023-09-08T03:15:57.329Z,100.00
2023-09-08T03:18:59.766Z,100.00
2023-09-08T03:22:01.389Z,100.00
2023-09-08T03:25:03.045Z,100.00
2023-09-08T03:28:04.980Z,100.00
2023-09-08T03:31:06.842Z,100.00
2023-09-08T03:34:08.614Z,100.00
2023-09-08T03:37:10.429Z,100.00
2023-09-08T03:40:12.405Z,100.00
2023-09-08T03:43:14.358Z,100.00
2023-09-08T03:46:16.218Z,100.00
2023-09-08T03:49:17.980Z,100.00
2023-09-08T03:52:19.654Z,100.00
2023-09-08T03:55:21.391Z,100.00
2023-09-08T03:58:22.979Z,100.00
2023-09-08T04:01:24.638Z,100.00
2023-09-08T04:04:26.297Z,100.00
2023-09-08T04:07:27.969Z,100.00
2023-09-08T04:10:29.626Z,100.00
2023-09-08T04:13:31.254Z,100.00
2023-09-08T04:16:32.875Z,100.00
2023-09-08T04:19:34.574Z,100.00
2023-09-08T04:22:36.273Z,100.00
2023-09-08T04:25:37.869Z,100.00
2023-09-08T04:28:39.530Z,100.00
2023-09-08T04:31:41.302Z,100.00
2023-09-08T04:34:43.641Z,100.00
2023-09-08T04:37:45.282Z,100.00
2023-09-08T04:40:47.640Z,100.00
2023-09-08T04:43:49.259Z,100.00
2023-09-08T04:46:50.989Z,100.00
2023-09-08T04:49:52.644Z,100.00
2023-09-08T04:52:54.325Z,100.00
2023-09-08T04:55:56.005Z,100.00
2023-09-08T04:58:59.133Z,100.00
2023-09-08T05:02:00.792Z,100.00
2023-09-08T05:05:02.557Z,100.00
2023-09-08T05:08:05.092Z,100.00
2023-09-08T05:11:06.734Z,100.00
2023-09-08T05:14:08.525Z,100.00
2023-09-08T05:17:10.262Z,100.00
2023-09-08T05:20:11.942Z,100.00
2023-09-08T05:23:13.600Z,100.00
2023-09-08T05:26:15.363Z,100.00
2023-09-08T05:29:16.957Z,100.00
2023-09-08T05:32:18.629Z,100.00
2023-09-08T05:35:20.306Z,100.00
2023-09-08T05:38:21.910Z,100.00
2023-09-08T05:41:23.553Z,100.00
2023-09-08T05:44:26.366Z,100.00
2023-09-08T05:47:28.033Z,100.00
2023-09-08T05:50:29.685Z,100.00
2023-09-08T05:53:31.332Z,100.00
2023-09-08T05:56:34.624Z,100.00
2023-09-08T05:59:36.358Z,100.00
2023-09-08T06:02:38.084Z,100.00
2023-09-08T06:05:39.838Z,100.00
2023-09-08T06:08:41.407Z,100.00
2023-09-08T06:11:43.355Z,100.00
2023-09-08T06:14:44.944Z,100.00
2023-09-08T06:17:48.041Z,100.00
2023-09-08T06:20:50.066Z,100.00
2023-09-08T06:23:51.742Z,100.00
2023-09-08T06:26:53.422Z,100.00
2023-09-08T06:29:57.191Z,100.00
2023-09-08T06:32:59.922Z,100.00
2023-09-08T06:36:01.637Z,100.00
2023-09-08T06:39:03.800Z,100.00
2023-09-08T06:42:05.596Z,100.00
2023-09-08T06:45:07.935Z,100.00
2023-09-08T06:48:09.874Z,100.00
2023-09-08T06:51:11.766Z,100.00
2023-09-08T06:54:13.501Z,100.00
2023-09-08T06:57:15.339Z,100.00
2023-09-08T07:00:18.695Z,100.00
2023-09-08T07:03:20.508Z,100.00
2023-09-08T07:06:23.471Z,100.00
2023-09-08T07:09:25.636Z,100.00
2023-09-08T07:12:27.276Z,100.00
2023-09-08T07:15:28.922Z,100.00
2023-09-08T07:18:33.872Z,100.00
2023-09-08T07:21:35.751Z,100.00
2023-09-08T07:24:37.378Z,100.00
2023-09-08T07:27:39.111Z,100.00
2023-09-08T07:30:40.843Z,100.00
2023-09-08T07:33:42.608Z,100.00
2023-09-08T07:36:44.738Z,100.00
2023-09-08T07:39:47.359Z,100.00
2023-09-08T07:42:49.085Z,100.00
2023-09-08T07:45:50.743Z,100.00
2023-09-08T07:48:52.515Z,100.00
2023-09-08T07:51:54.184Z,100.00
2023-09-08T07:54:55.831Z,100.00
2023-09-08T07:57:58.914Z,100.00
2023-09-08T08:01:00.580Z,100.00
2023-09-08T08:04:04.736Z,100.00
2023-09-08T08:07:06.544Z,95.14
2023-09-08T08:10:08.584Z,90.85
2023-09-08T08:13:11.467Z,87.91
2023-09-08T08:16:13.222Z,86.98
2023-09-08T08:19:14.903Z,85.62
2023-09-08T08:22:16.563Z,85.24
2023-09-08T08:25:18.329Z,82.54
2023-09-08T08:28:20.827Z,79.48
2023-09-08T08:31:22.439Z,76.13
2023-09-08T08:34:24.156Z,77.43
2023-09-08T08:37:25.903Z,77.69
2023-09-08T08:40:28.287Z,74.83
2023-09-08T08:43:30.910Z,74.86
2023-09-08T08:46:34.400Z,73.84
2023-09-08T08:49:37.782Z,67.20
2023-09-08T08:52:40.876Z,68.35
2023-09-08T08:55:43.051Z,64.85
2023-09-08T08:58:46.356Z,70.05
2023-09-08T09:01:49.050Z,68.60
2023-09-08T09:04:52.079Z,68.03
2023-09-08T09:07:56.010Z,64.80
2023-09-08T09:10:57.695Z,67.13
2023-09-08T09:13:59.734Z,61.46
2023-09-08T09:17:02.562Z,64.85
2023-09-08T09:20:18.909Z,60.02
2023-09-08T09:23:35.699Z,59.34
2023-09-08T09:26:37.322Z,56.63
2023-09-08T09:29:50.110Z,61.04
2023-09-08T09:33:05.590Z,58.28
2023-09-08T09:36:08.229Z,55.59
2023-09-08T09:39:10.086Z,53.74
2023-09-08T09:42:11.764Z,52.34
2023-09-08T09:45:13.412Z,51.18
2023-09-08T09:48:16.742Z,50.83
2023-09-08T09:51:20.704Z,52.62
2023-09-08T09:54:22.604Z,48.79
2023-09-08T09:57:24.647Z,51.51
2023-09-08T10:00:27.910Z,46.57
2023-09-08T10:03:31.579Z,47.20
2023-09-08T10:06:35.461Z,45.54
2023-09-08T10:09:38.104Z,46.19
2023-09-08T10:12:42.816Z,46.32
2023-09-08T10:15:46.171Z,45.76
2023-09-08T10:18:50.542Z,43.77
2023-09-08T10:21:55.704Z,44.36
2023-09-08T10:24:59.622Z,41.65
2023-09-08T10:28:01.401Z,42.98
2023-09-08T10:31:04.340Z,44.00
2023-09-08T10:34:06.502Z,41.08
2023-09-08T10:37:30.421Z,41.68
2023-09-08T10:40:34.731Z,39.32
2023-09-08T10:43:36.367Z,41.04
2023-09-08T10:46:38.329Z,38.55
2023-09-08T10:49:41.573Z,41.05
2023-09-08T10:52:43.196Z,40.17
2023-09-08T10:56:10.919Z,38.83
2023-09-08T10:59:14.426Z,40.27
2023-09-08T11:02:36.830Z,36.43
2023-09-08T11:05:38.643Z,37.63
2023-09-08T11:08:43.724Z,36.51
2023-09-08T11:11:46.280Z,35.83
2023-09-08T11:14:50.158Z,35.54
2023-09-08T11:17:52.172Z,35.07
2023-09-08T11:20:54.532Z,32.59
2023-09-08T11:23:56.999Z,32.01
2023-09-08T11:26:58.684Z,31.96
2023-09-08T11:30:00.483Z,29.90
2023-09-08T11:33:02.368Z,31.48
2023-09-08T11:36:11.415Z,32.41
2023-09-08T11:39:13.029Z,30.05
2023-09-08T11:42:16.824Z,29.01
2023-09-08T11:45:22.707Z,29.79
2023-09-08T11:48:25.903Z,30.73
2023-09-08T11:51:28.301Z,28.99
2023-09-08T11:54:30.631Z,29.09
2023-09-08T11:57:33.338Z,29.27
2023-09-08T12:00:36.066Z,30.67
2023-09-08T12:03:53.571Z,27.77
2023-09-08T12:06:59.200Z,29.86
2023-09-08T12:10:08.391Z,29.21
2023-09-08T12:13:11.245Z,29.55
2023-09-08T12:16:25.957Z,28.22
2023-09-08T12:19:32.219Z,29.13
2023-09-08T12:22:34.394Z,26.99
2023-09-08T12:25:46.048Z,29.04
2023-09-08T12:28:48.372Z,29.51
2023-09-08T12:31:50.010Z,29.13
2023-09-08T12:34:55.768Z,29.87
2023-09-08T12:38:02.351Z,28.72
2023-09-08T12:41:04.004Z,28.95
2023-09-08T12:44:05.925Z,27.57
2023-09-08T12:47:08.052Z,26.46
2023-09-08T12:50:11.000Z,28.01
2023-09-08T12:53:12.645Z,27.57
2023-09-08T12:56:14.271Z,26.61
2023-09-08T12:59:20.900Z,26.98
2023-09-08T13:02:23.168Z,26.41
2023-09-08T13:05:24.792Z,26.69
2023-09-08T13:08:26.478Z,26.83
2023-09-08T13:11:29.064Z,27.27
2023-09-08T13:14:30.708Z,28.19
2023-09-08T13:17:32.449Z,26.68
2023-09-08T13:20:34.130Z,27.48
2023-09-08T13:23:35.755Z,29.15
2023-09-08T13:26:38.710Z,30.26
2023-09-08T13:29:41.509Z,30.35
2023-09-08T13:32:44.106Z,29.55
2023-09-08T13:35:45.917Z,28.53
2023-09-08T13:38:47.498Z,29.17
2023-09-08T13:41:53.786Z,30.94
2023-09-08T13:44:56.644Z,29.09
2023-09-08T13:47:58.771Z,29.25
2023-09-08T13:51:06.512Z,28.55
2023-09-08T13:54:09.988Z,28.01
2023-09-08T13:57:14.907Z,28.10
2023-09-08T14:00:18.159Z,30.56
2023-09-08T14:03:23.895Z,30.46
2023-09-08T14:06:30.627Z,30.97
2023-09-08T14:09:43.790Z,30.90
2023-09-08T14:12:50.331Z,31.95
2023-09-08T14:15:52.034Z,32.20
2023-09-08T14:18:53.874Z,33.42
2023-09-08T14:21:55.493Z,31.90
2023-09-08T14:24:57.124Z,30.96
2023-09-08T14:28:01.132Z,33.66
2023-09-08T14:31:03.681Z,33.20
2023-09-08T14:34:05.435Z,32.59
2023-09-08T14:37:10.696Z,32.46
2023-09-08T14:40:13.471Z,34.02
2023-09-08T14:43:15.119Z,33.77
2023-09-08T14:46:16.900Z,35.42
2023-09-08T14:49:18.528Z,37.58
2023-09-08T14:52:21.919Z,35.78
2023-09-08T14:55:23.770Z,35.68
2023-09-08T14:58:26.100Z,35.93
2023-09-08T15:01:27.926Z,36.93
2023-09-08T15:04:29.605Z,36.74
2023-09-08T15:07:31.253Z,38.82
2023-09-08T15:10:32.975Z,39.43
2023-09-08T15:13:34.870Z,39.96
2023-09-08T15:16:36.862Z,39.59
2023-09-08T15:19:38.531Z,40.69
2023-09-08T15:22:40.185Z,40.79
2023-09-08T15:25:41.874Z,39.77
2023-09-08T15:28:43.516Z,39.70
2023-09-08T15:31:45.200Z,39.83
2023-09-08T15:34:51.143Z,40.17
2023-09-08T15:37:52.766Z,42.47
2023-09-08T15:41:09.767Z,41.22
2023-09-08T15:44:11.432Z,40.10
2023-09-08T15:47:13.114Z,41.21
2023-09-08T15:50:14.828Z,39.88
2023-09-08T15:53:16.425Z,42.28
2023-09-08T15:56:18.061Z,43.24
2023-09-08T15:59:19.650Z,41.97
2023-09-08T16:02:21.353Z,40.40
2023-09-08T16:05:22.997Z,41.16
2023-09-08T16:08:25.451Z,41.22
2023-09-08T16:11:27.215Z,42.17
2023-09-08T16:14:28.872Z,42.91
2023-09-08T16:17:30.579Z,46.71
2023-09-08T16:20:32.790Z,46.19
2023-09-08T16:23:34.612Z,47.94
2023-09-08T16:26:36.721Z,49.52
2023-09-08T16:29:40.311Z,52.95
2023-09-08T16:32:42.003Z,53.61
2023-09-08T16:35:43.807Z,53.16
2023-09-08T16:38:45.450Z,55.20
2023-09-08T16:41:47.084Z,55.98
2023-09-08T16:44:48.791Z,59.86
2023-09-08T16:47:50.532Z,58.92
2023-09-08T16:50:52.204Z,59.94
2023-09-08T16:53:53.855Z,61.62
2023-09-08T16:56:55.625Z,62.09
2023-09-08T16:59:57.276Z,63.69
2023-09-08T17:02:59.037Z,64.87
2023-09-08T17:06:00.847Z,68.49
2023-09-08T17:09:02.702Z,69.00
2023-09-08T17:12:08.159Z,72.40
2023-09-08T17:15:10.327Z,74.34
2023-09-08T17:18:12.029Z,73.99
2023-09-08T17:21:13.733Z,83.84
2023-09-08T17:24:15.490Z,80.11
2023-09-08T17:27:18.019Z,80.40
2023-09-08T17:30:19.650Z,86.21
2023-09-08T17:33:21.625Z,92.95
2023-09-08T17:36:23.339Z,95.01
2023-09-08T17:39:25.303Z,100.00
2023-09-08T17:42:26.906Z,100.00
2023-09-08T17:45:28.590Z,100.00
2023-09-08T17:48:30.324Z,100.00
2023-09-08T17:51:32.069Z,95.89
2023-09-08T17:54:33.756Z,100.00
2023-09-08T17:57:36.131Z,100.00
2023-09-08T18:00:37.831Z,100.00
2023-09-08T18:03:40.115Z,100.00
2023-09-08T18:06:42.276Z,100.00
2023-09-08T18:09:43.871Z,100.00
2023-09-08T18:12:45.585Z,100.00
2023-09-08T18:15:47.283Z,100.00
2023-09-08T18:18:49.804Z,100.00
2023-09-08T18:21:51.510Z,100.00
2023-09-08T18:24:53.710Z,100.00
2023-09-08T18:27:55.314Z,100.00
2023-09-08T18:30:57.483Z,100.00
2023-09-08T18:33:59.448Z,100.00
2023-09-08T18:37:01.045Z,100.00
2023-09-08T18:40:04.432Z,100.00
2023-09-08T18:43:06.095Z,100.00
2023-09-08T18:46:07.885Z,100.00
2023-09-08T18:49:09.632Z,100.00
2023-09-08T18:52:11.272Z,100.00
2023-09-08T18:55:12.888Z,100.00
2023-09-08T18:58:14.669Z,100.00
2023-09-08T19:01:16.519Z,100.00
2023-09-08T19:04:18.129Z,100.00
2023-09-08T19:07:19.772Z,100.00
2023-09-08T19:10:21.517Z,100.00
2023-09-08T19:13:23.547Z,100.00
2023-09-08T19:16:25.254Z,100.00
2023-09-08T19:19:27.155Z,100.00
2023-09-08T19:22:28.897Z,100.00
2023-09-08T19:25:30.532Z,100.00
2023-09-08T19:28:32.134Z,100.00
2023-09-08T19:31:33.895Z,100.00
2023-09-08T19:34:35.889Z,100.00
2023-09-08T19:37:37.570Z,100.00
2023-09-08T19:40:39.173Z,100.00
2023-09-08T19:43:41.177Z,100.00
2023-09-08T19:46:42.888Z,100.00
2023-09-08T19:49:44.806Z,100.00
2023-09-08T19:52:46.496Z,100.00
2023-09-08T19:55:48.444Z,100.00
2023-09-08T19:58:52.147Z,100.00
2023-09-08T20:01:54.012Z,100.00
2023-09-08T20:04:55.642Z,100.00
2023-09-08T20:07:57.246Z,100.00
2023-09-08T20:10:59.109Z,100.00
2023-09-08T20:14:00.850Z,100.00
2023-09-08T20:17:04.587Z,100.00
2023-09-08T20:20:07.274Z,100.00
2023-09-08T20:23:12.897Z,100.00
2023-09-08T20:26:15.285Z,100.00
2023-09-08T20:29:17.042Z,100.00
2023-09-08T20:32:18.857Z,100.00
2023-09-08T20:35:20.492Z,100.00
2023-09-08T20:38:22.148Z,100.00
2023-09-08T20:41:23.996Z,100.00
2023-09-08T20:44:25.614Z,100.00
2023-09-08T20:47:27.279Z,100.00
2023-09-08T20:50:30.073Z,100.00
2023-09-08T20:53:32.589Z,100.00
2023-09-08T20:56:34.226Z,100.00
2023-09-08T20:59:36.167Z,100.00
2023-09-08T21:02:37.799Z,100.00
2023-09-08T21:05:39.453Z,100.00
2023-09-08T21:08:41.074Z,100.00
2023-09-08T21:11:42.705Z,100.00
2023-09-08T21:14:44.781Z,100.00
2023-09-08T21:17:46.446Z,100.00
2023-09-08T21:20:49.012Z,100.00
2023-09-08T21:23:50.729Z,100.00
2023-09-08T21:26:52.406Z,100.00
2023-09-08T21:29:55.034Z,100.00
2023-09-08T21:32:56.719Z,100.00
2023-09-08T21:35:58.466Z,100.00
2023-09-08T21:39:02.371Z,100.00
2023-09-08T21:42:04.691Z,100.00
2023-09-08T21:45:07.567Z,100.00
2023-09-08T21:48:09.219Z,100.00
2023-09-08T21:51:10.978Z,100.00
2023-09-08T21:54:12.762Z,100.00
2023-09-08T21:57:14.399Z,100.00
2023-09-08T22:00:22.125Z,100.00
2023-09-08T22:03:24.259Z,100.00
2023-09-08T22:06:26.040Z,100.00
2023-09-08T22:09:27.847Z,100.00
2023-09-08T22:12:29.475Z,100.00
2023-09-08T22:15:31.339Z,100.00
2023-09-08T22:18:33.471Z,100.00
2023-09-08T22:21:35.188Z,100.00
2023-09-08T22:24:36.852Z,100.00
2023-09-08T22:27:39.632Z,100.00
2023-09-08T22:30:41.202Z,100.00
2023-09-08T22:33:43.957Z,100.00
2023-09-08T22:36:45.874Z,100.00
2023-09-08T22:39:47.492Z,100.00
2023-09-08T22:42:50.836Z,100.00
2023-09-08T22:45:52.545Z,100.00
2023-09-08T22:48:54.234Z,100.00
2023-09-08T22:51:55.911Z,100.00
2023-09-08T22:55:08.788Z,100.00
2023-09-08T22:58:16.115Z,100.00
2023-09-08T23:01:17.855Z,100.00
2023-09-08T23:04:19.556Z,100.00
2023-09-08T23:07:21.628Z,100.00
2023-09-08T23:10:23.276Z,100.00
2023-09-08T23:13:25.145Z,100.00
2023-09-08T23:16:26.877Z,100.00
2023-09-08T23:19:28.962Z,100.00
2023-09-08T23:22:30.589Z,100.00
2023-09-08T23:25:32.203Z,100.00
2023-09-08T23:28:33.930Z,100.00
2023-09-08T23:31:35.671Z,100.00
2023-09-08T23:34:37.509Z,100.00
2023-09-08T23:37:39.171Z,100.00
2023-09-08T23:40:40.852Z,100.00
2023-09-08T23:43:42.567Z,100.00
2023-09-08T23:46:44.301Z,100.00
2023-09-08T23:49:46.006Z,100.00
2023-09-08T23:52:47.597Z,100.00
2023-09-08T23:55:50.125Z,100.00
2023-09-08T23:58:51.903Z,100.00
